| time (UTC) | temp C | wind direction | speed KPH | gust KPH | rain 1hr cm | rain 24hr cm | rain mn cm | humidity % | barometer mb |
| 20260508102352 | 20 | 344 | 8.0 | 11.3 | 0.00 | 0.00 | 0.00 | 34 | 1016.7 |
| 20260508102231 | 20 | 342 | 8.0 | 14.5 | 0.00 | 0.00 | 0.00 | 34 | 1016.7 |
| 20260508101353 | 20 | 236 | 1.6 | 3.2 | 0.00 | 0.00 | 0.00 | 34 | 1016.7 |
| 20260508100727 | 20 | 215 | 0.0 | 3.2 | 0.00 | 0.00 | 0.00 | 34 | 1016.8 |
| 20260508100354 | 20 | 349 | 3.2 | 4.8 | 0.00 | 0.00 | 0.00 | 33 | 1016.8 |
| 20260508095355 | 19 | 237 | 1.6 | 3.2 | 0.00 | 0.00 | 0.00 | 33 | 1016.9 |
| 20260508095234 | 19 | 212 | 3.2 | 9.7 | 0.00 | 0.00 | 0.00 | 32 | 1016.9 |
| 20260508094346 | 20 | 216 | 3.2 | 4.8 | 0.00 | 0.00 | 0.00 | 35 | 1016.9 |
| 20260508093731 | 19 | 272 | 0.0 | 0.0 | 0.00 | 0.00 | 0.00 | 37 | 1017.0 |
| 20260508093347 | 19 | 243 | 3.2 | 4.8 | 0.00 | 0.00 | 0.00 | 37 | 1017.1 |
| 20260508092349 | 19 | 295 | 8.0 | 11.3 | 0.00 | 0.00 | 0.00 | 38 | 1017.2 |
| 20260508092227 | 18 | 240 | 3.2 | 4.8 | 0.00 | 0.00 | 0.00 | 39 | 1017.2 |
| 20260508091350 | 18 | 209 | 0.0 | 1.6 | 0.00 | 0.00 | 0.00 | 37 | 1017.2 |
| 20260508090734 | 18 | 265 | 8.0 | 11.3 | 0.00 | 0.00 | 0.00 | 39 | 1017.4 |
| 20260508090350 | 18 | 253 | 3.2 | 3.2 | 0.00 | 0.00 | 0.00 | 40 | 1017.4 |
| 20260508085352 | 18 | 228 | 1.6 | 8.0 | 0.00 | 0.00 | 0.00 | 40 | 1017.5 |
| 20260508085231 | 18 | 287 | 3.2 | 4.8 | 0.00 | 0.00 | 0.00 | 40 | 1017.4 |
| 20260508084353 | 18 | 327 | 1.6 | 4.8 | 0.00 | 0.00 | 0.00 | 41 | 1017.4 |
| 20260508083728 | 18 | 244 | 3.2 | 8.0 | 0.00 | 0.00 | 0.00 | 42 | 1017.4 |
| 20260508083353 | 18 | 310 | 4.8 | 4.8 | 0.00 | 0.00 | 0.00 | 42 | 1017.4 |
| 20260508082355 | 18 | 253 | 3.2 | 9.7 | 0.00 | 0.00 | 0.00 | 43 | 1017.5 |
| 20260508082234 | 18 | 267 | 1.6 | 11.3 | 0.00 | 0.00 | 0.00 | 44 | 1017.5 |
| 20260508081346 | 17 | 294 | 1.6 | 9.7 | 0.00 | 0.00 | 0.00 | 45 | 1017.5 |
| 20260508080731 | 17 | 237 | 1.6 | 3.2 | 0.00 | 0.00 | 0.00 | 45 | 1017.7 |
| 20260508080347 | 17 | 312 | 1.6 | 3.2 | 0.00 | 0.00 | 0.00 | 46 | 1017.7 |
| 20260508075348 | 17 | 294 | 1.6 | 4.8 | 0.00 | 0.00 | 0.00 | 49 | 1017.7 |
| 20260508075227 | 17 | 53 | 1.6 | 4.8 | 0.00 | 0.00 | 0.00 | 49 | 1017.7 |
| 20260508074349 | 17 | 299 | 9.7 | 12.9 | 0.00 | 0.00 | 0.00 | 49 | 1017.8 |
| 20260508073734 | 17 | 320 | 4.8 | 11.3 | 0.00 | 0.00 | 0.00 | 48 | 1017.9 |
| 20260508073350 | 17 | 293 | 3.2 | 8.0 | 0.00 | 0.00 | 0.00 | 48 | 1017.9 |
| 20260508072352 | 16 | 319 | 4.8 | 9.7 | 0.00 | 0.00 | 0.00 | 48 | 1017.9 |
| 20260508072230 | 16 | 302 | 3.2 | 4.8 | 0.00 | 0.00 | 0.00 | 50 | 1017.9 |
| 20260508071353 | 16 | 309 | 3.2 | 8.0 | 0.00 | 0.00 | 0.00 | 49 | 1017.8 |
| 20260508070727 | 16 | 284 | 3.2 | 4.8 | 0.00 | 0.00 | 0.00 | 49 | 1017.9 |
| 20260508070353 | 16 | 309 | 3.2 | 4.8 | 0.00 | 0.00 | 0.00 | 48 | 1017.9 |
| 20260508065355 | 16 | 276 | 1.6 | 4.8 | 0.00 | 0.00 | 0.00 | 50 | 1018.0 |
| 20260508065234 | 16 | 286 | 8.0 | 8.0 | 0.00 | 0.00 | 0.00 | 50 | 1018.0 |
| 20260508064346 | 16 | 302 | 3.2 | 4.8 | 0.00 | 0.00 | 0.00 | 53 | 1018.1 |
| 20260508063730 | 16 | 301 | 1.6 | 4.8 | 0.00 | 0.00 | 0.00 | 52 | 1018.1 |
| 20260508063346 | 15 | 244 | 1.6 | 4.8 | 0.00 | 0.00 | 0.00 | 52 | 1018.1 |
| 20260508062348 | 15 | 274 | 0.0 | 1.6 | 0.00 | 0.00 | 0.00 | 56 | 1018.1 |
| 20260508062227 | 15 | 293 | 1.6 | 4.8 | 0.00 | 0.00 | 0.00 | 57 | 1018.1 |
| 20260508061349 | 14 | 277 | 0.0 | 1.6 | 0.00 | 0.00 | 0.00 | 61 | 1018.1 |
| 20260508060734 | 14 | 288 | 0.0 | 3.2 | 0.00 | 0.00 | 0.00 | 62 | 1018.2 |
| 20260508060350 | 14 | 262 | 0.0 | 3.2 | 0.00 | 0.00 | 0.00 | 62 | 1018.1 |
| 20260508055351 | 13 | 331 | 1.6 | 3.2 | 0.00 | 0.00 | 0.00 | 64 | 1018.1 |
| 20260508055230 | 13 | 284 | 0.0 | 3.2 | 0.00 | 0.00 | 0.00 | 64 | 1018.1 |
| 20260508054353 | 13 | 289 | 3.2 | 8.0 | 0.00 | 0.00 | 0.00 | 65 | 1018.1 |
| 20260508053727 | 13 | 331 | 1.6 | 3.2 | 0.00 | 0.00 | 0.00 | 66 | 1018.1 |
| 20260508053353 | 13 | 8 | 0.0 | 1.6 | 0.00 | 0.00 | 0.00 | 66 | 1018.1 |
| 20260508052355 | 13 | 313 | 0.0 | 0.0 | 0.00 | 0.00 | 0.00 | 67 | 1018.1 |
| 20260508052234 | 13 | 311 | 0.0 | 0.0 | 0.00 | 0.00 | 0.00 | 68 | 1018.1 |
| 20260508051346 | 12 | 2 | 0.0 | 0.0 | 0.00 | 0.00 | 0.00 | 69 | 1018.1 |
| 20260508050729 | 12 | 335 | 0.0 | 0.0 | 0.00 | 0.00 | 0.00 | 69 | 1018.0 |
| 20260508050345 | 12 | 325 | 0.0 | 1.6 | 0.00 | 0.00 | 0.00 | 70 | 1018.1 |
| 20260508045347 | 12 | 271 | 0.0 | 0.0 | 0.00 | 0.00 | 0.00 | 73 | 1018.1 |
| 20260508045226 | 12 | 271 | 0.0 | 0.0 | 0.00 | 0.00 | 0.00 | 72 | 1018.1 |
| 20260508044348 | 11 | 311 | 0.0 | 0.0 | 0.00 | 0.00 | 0.00 | 74 | 1018.2 |
| 20260508043733 | 11 | 311 | 0.0 | 0.0 | 0.00 | 0.00 | 0.00 | 74 | 1018.2 |
| 20260508043348 | 11 | 311 | 0.0 | 0.0 | 0.00 | 0.00 | 0.00 | 74 | 1018.1 |
| 20260508042350 | 11 | 44 | 0.0 | 0.0 | 0.00 | 0.00 | 0.00 | 74 | 1018.1 |
| 20260508042229 | 11 | 44 | 0.0 | 0.0 | 0.00 | 0.00 | 0.00 | 74 | 1018.0 |
| 20260508041351 | 11 | 255 | 0.0 | 0.0 | 0.00 | 0.00 | 0.00 | 75 | 1018.0 |
| 20260508040726 | 10 | 255 | 0.0 | 0.0 | 0.00 | 0.00 | 0.00 | 75 | 1018.0 |
| 20260508040352 | 10 | 255 | 0.0 | 0.0 | 0.00 | 0.00 | 0.00 | 75 | 1018.0 |
| 20260508035353 | 10 | 255 | 0.0 | 0.0 | 0.00 | 0.00 | 0.00 | 75 | 1017.8 |
| 20260508035232 | 10 | 255 | 0.0 | 0.0 | 0.00 | 0.00 | 0.00 | 75 | 1017.8 |
| 20260508034355 | 10 | 255 | 0.0 | 0.0 | 0.00 | 0.00 | 0.00 | 74 | 1017.7 |
| 20260508033729 | 10 | 255 | 0.0 | 0.0 | 0.00 | 0.00 | 0.00 | 74 | 1017.6 |
| 20260508033345 | 10 | 255 | 0.0 | 0.0 | 0.00 | 0.00 | 0.00 | 74 | 1017.6 |
| 20260508032347 | 10 | 255 | 0.0 | 0.0 | 0.00 | 0.00 | 0.00 | 74 | 1017.6 |
| 20260508032225 | 10 | 255 | 0.0 | 0.0 | 0.00 | 0.00 | 0.00 | 73 | 1017.5 |
| 20260508031348 | 10 | 255 | 0.0 | 0.0 | 0.00 | 0.00 | 0.00 | 73 | 1017.5 |
| 20260508030732 | 10 | 255 | 0.0 | 0.0 | 0.00 | 0.00 | 0.00 | 73 | 1017.4 |
| 20260508030348 | 10 | 255 | 0.0 | 0.0 | 0.00 | 0.00 | 0.00 | 73 | 1017.3 |
| 20260508025350 | 10 | 255 | 0.0 | 0.0 | 0.00 | 0.00 | 0.00 | 73 | 1017.2 |
| 20260508025229 | 10 | 255 | 0.0 | 0.0 | 0.00 | 0.00 | 0.00 | 73 | 1017.1 |
| 20260508024351 | 11 | 255 | 0.0 | 0.0 | 0.00 | 0.00 | 0.00 | 72 | 1017.1 |
| 20260508023725 | 11 | 255 | 0.0 | 0.0 | 0.00 | 0.00 | 0.00 | 71 | 1017.1 |
| 20260508023351 | 11 | 255 | 0.0 | 0.0 | 0.00 | 0.00 | 0.00 | 71 | 1017.1 |
| 20260508022352 | 11 | 255 | 0.0 | 0.0 | 0.00 | 0.00 | 0.00 | 71 | 1017.0 |
| 20260508022231 | 11 | 255 | 0.0 | 0.0 | 0.00 | 0.00 | 0.00 | 71 | 1017.0 |
| 20260508021353 | 11 | 255 | 0.0 | 0.0 | 0.00 | 0.00 | 0.00 | 71 | 1016.9 |
| 20260508020727 | 11 | 255 | 0.0 | 1.6 | 0.00 | 0.00 | 0.00 | 71 | 1016.9 |
| 20260508020353 | 11 | 255 | 0.0 | 0.0 | 0.00 | 0.00 | 0.00 | 71 | 1016.9 |
| 20260508015354 | 11 | 255 | 0.0 | 0.0 | 0.00 | 0.00 | 0.00 | 70 | 1017.0 |
| 20260508015233 | 11 | 255 | 0.0 | 0.0 | 0.00 | 0.00 | 0.00 | 70 | 1017.0 |
| 20260508014346 | 11 | 255 | 0.0 | 0.0 | 0.00 | 0.00 | 0.00 | 69 | 1017.1 |
| 20260508013730 | 11 | 255 | 1.6 | 1.6 | 0.00 | 0.00 | 0.00 | 70 | 1017.1 |
| 20260508013346 | 11 | 217 | 1.6 | 1.6 | 0.00 | 0.00 | 0.00 | 70 | 1017.1 |
| 20260508012348 | 11 | 158 | 0.0 | 0.0 | 0.00 | 0.00 | 0.00 | 71 | 1017.1 |
| 20260508012226 | 11 | 167 | 1.6 | 1.6 | 0.00 | 0.00 | 0.00 | 71 | 1017.2 |
| 20260508011349 | 11 | 157 | 1.6 | 1.6 | 0.00 | 0.00 | 0.00 | 71 | 1017.2 |
| 20260508010733 | 11 | 211 | 0.0 | 1.6 | 0.00 | 0.00 | 0.00 | 70 | 1017.3 |
| 20260508010349 | 11 | 188 | 0.0 | 3.2 | 0.00 | 0.00 | 0.00 | 70 | 1017.3 |
| 20260508005350 | 11 | 176 | 0.0 | 0.0 | 0.00 | 0.00 | 0.00 | 69 | 1017.4 |
| 20260508005229 | 11 | 170 | 0.0 | 0.0 | 0.00 | 0.00 | 0.00 | 69 | 1017.4 |
| 20260508004351 | 11 | 187 | 0.0 | 0.0 | 0.00 | 0.00 | 0.00 | 69 | 1017.5 |
| 20260508003725 | 11 | 167 | 0.0 | 0.0 | 0.00 | 0.00 | 0.00 | 69 | 1017.4 |
| 20260508003351 | 11 | 257 | 0.0 | 0.0 | 0.00 | 0.00 | 0.00 | 69 | 1017.4 |
| 20260508002353 | 11 | 257 | 0.0 | 0.0 | 0.00 | 0.00 | 0.00 | 69 | 1017.6 |
| 20260508002232 | 11 | 257 | 0.0 | 0.0 | 0.00 | 0.00 | 0.00 | 69 | 1017.6 |
| 20260508001355 | 11 | 257 | 0.0 | 0.0 | 0.00 | 0.00 | 0.00 | 68 | 1017.6 |
| 20260508000729 | 11 | 257 | 0.0 | 0.0 | 0.00 | 0.00 | 0.00 | 68 | 1017.6 |
| 20260508000345 | 11 | 257 | 0.0 | 0.0 | 0.00 | 0.00 | 0.00 | 68 | 1017.6 |
| 20260507235346 | 11 | 257 | 0.0 | 0.0 | 0.00 | 0.00 | 0.00 | 67 | 1017.6 |
| 20260507235225 | 12 | 257 | 0.0 | 0.0 | 0.00 | 0.00 | 0.00 | 66 | 1017.6 |
| 20260507234349 | 12 | 257 | 0.0 | 0.0 | 0.00 | 0.00 | 0.00 | 66 | 1017.5 |
| 20260507233732 | 12 | 257 | 0.0 | 0.0 | 0.00 | 0.00 | 0.00 | 66 | 1017.5 |
| 20260507233348 | 12 | 257 | 0.0 | 1.6 | 0.00 | 0.00 | 0.00 | 65 | 1017.5 |
| 20260507232350 | 12 | 239 | 0.0 | 0.0 | 0.00 | 0.00 | 0.00 | 65 | 1017.5 |
| 20260507232229 | 12 | 239 | 0.0 | 0.0 | 0.00 | 0.00 | 0.00 | 65 | 1017.5 |
| 20260507231351 | 12 | 239 | 0.0 | 0.0 | 0.00 | 0.00 | 0.00 | 64 | 1017.4 |
| 20260507230725 | 12 | 239 | 0.0 | 0.0 | 0.00 | 0.00 | 0.00 | 64 | 1017.4 |
| 20260507230351 | 12 | 239 | 0.0 | 0.0 | 0.00 | 0.00 | 0.00 | 63 | 1017.4 |
| 20260507225353 | 13 | 239 | 0.0 | 0.0 | 0.00 | 0.00 | 0.00 | 61 | 1017.3 |
| 20260507225232 | 13 | 239 | 0.0 | 0.0 | 0.00 | 0.00 | 0.00 | 61 | 1017.3 |
| 20260507224354 | 13 | 231 | 0.0 | 0.0 | 0.00 | 0.00 | 0.00 | 62 | 1017.4 |
| 20260507223728 | 13 | 231 | 0.0 | 0.0 | 0.00 | 0.00 | 0.00 | 62 | 1017.4 |
| 20260507223344 | 13 | 231 | 0.0 | 0.0 | 0.00 | 0.00 | 0.00 | 61 | 1017.2 |
| 20260507222346 | 13 | 231 | 0.0 | 0.0 | 0.00 | 0.00 | 0.00 | 61 | 1017.4 |
| 20260507222225 | 13 | 231 | 0.0 | 0.0 | 0.00 | 0.00 | 0.00 | 61 | 1017.4 |
| 20260507221347 | 13 | 231 | 0.0 | 0.0 | 0.00 | 0.00 | 0.00 | 60 | 1017.4 |
| 20260507220732 | 13 | 221 | 0.0 | 0.0 | 0.00 | 0.00 | 0.00 | 60 | 1017.4 |
| 20260507220348 | 13 | 221 | 0.0 | 0.0 | 0.00 | 0.00 | 0.00 | 60 | 1017.4 |
| 20260507215349 | 13 | 238 | 0.0 | 0.0 | 0.00 | 0.00 | 0.00 | 60 | 1017.4 |
| 20260507215228 | 13 | 230 | 0.0 | 0.0 | 0.00 | 0.00 | 0.00 | 60 | 1017.5 |
| 20260507214351 | 13 | 222 | 1.6 | 1.6 | 0.00 | 0.00 | 0.00 | 60 | 1017.5 |
| 20260507213725 | 13 | 206 | 0.0 | 1.6 | 0.00 | 0.00 | 0.00 | 60 | 1017.6 |
| 20260507213351 | 13 | 206 | 1.6 | 3.2 | 0.00 | 0.00 | 0.00 | 60 | 1017.6 |
| 20260507212353 | 13 | 171 | 3.2 | 4.8 | 0.00 | 0.00 | 0.00 | 60 | 1017.7 |
| 20260507212232 | 13 | 196 | 1.6 | 3.2 | 0.00 | 0.00 | 0.00 | 59 | 1017.7 |
| 20260507211354 | 13 | 218 | 0.0 | 0.0 | 0.00 | 0.00 | 0.00 | 59 | 1017.6 |
| 20260507210728 | 13 | 262 | 0.0 | 1.6 | 0.00 | 0.00 | 0.00 | 59 | 1017.7 |
| 20260507210344 | 13 | 262 | 0.0 | 0.0 | 0.00 | 0.00 | 0.00 | 58 | 1017.6 |
| 20260507205346 | 13 | 262 | 0.0 | 0.0 | 0.00 | 0.00 | 0.00 | 58 | 1017.7 |
| 20260507205225 | 13 | 262 | 0.0 | 0.0 | 0.00 | 0.00 | 0.00 | 58 | 1017.7 |
| 20260507204347 | 13 | 230 | 0.0 | 0.0 | 0.00 | 0.00 | 0.00 | 57 | 1017.7 |
| 20260507203731 | 13 | 250 | 0.0 | 1.6 | 0.00 | 0.00 | 0.00 | 57 | 1017.6 |
| 20260507203347 | 13 | 250 | 0.0 | 1.6 | 0.00 | 0.00 | 0.00 | 57 | 1017.6 |
| 20260507202349 | 13 | 198 | 0.0 | 0.0 | 0.00 | 0.00 | 0.00 | 57 | 1017.5 |
| 20260507202228 | 13 | 197 | 0.0 | 0.0 | 0.00 | 0.00 | 0.00 | 57 | 1017.5 |
| 20260507201350 | 13 | 197 | 0.0 | 0.0 | 0.00 | 0.00 | 0.00 | 55 | 1017.4 |
| 20260507200725 | 14 | 197 | 0.0 | 0.0 | 0.00 | 0.00 | 0.00 | 55 | 1017.4 |
| 20260507200351 | 14 | 197 | 0.0 | 0.0 | 0.00 | 0.00 | 0.00 | 55 | 1017.4 |
| 20260507195352 | 14 | 154 | 0.0 | 3.2 | 0.00 | 0.00 | 0.00 | 54 | 1017.3 |
| 20260507195232 | 14 | 193 | 1.6 | 3.2 | 0.00 | 0.00 | 0.00 | 54 | 1017.3 |
| 20260507194354 | 14 | 204 | 3.2 | 4.8 | 0.00 | 0.00 | 0.00 | 54 | 1017.2 |
| 20260507193728 | 14 | 172 | 1.6 | 3.2 | 0.00 | 0.00 | 0.00 | 54 | 1017.2 |
| 20260507193354 | 14 | 194 | 0.0 | 0.0 | 0.00 | 0.00 | 0.00 | 54 | 1017.3 |
| 20260507192346 | 14 | 152 | 0.0 | 3.2 | 0.00 | 0.00 | 0.00 | 54 | 1017.3 |
| 20260507192225 | 14 | 147 | 1.6 | 3.2 | 0.00 | 0.00 | 0.00 | 53 | 1017.3 |
| 20260507191347 | 15 | 140 | 0.0 | 1.6 | 0.00 | 0.00 | 0.00 | 53 | 1017.3 |
| 20260507190731 | 15 | 199 | 0.0 | 1.6 | 0.00 | 0.00 | 0.00 | 53 | 1017.3 |
| 20260507190347 | 15 | 201 | 1.6 | 3.2 | 0.00 | 0.00 | 0.00 | 52 | 1017.3 |
| 20260507185349 | 15 | 136 | 0.0 | 0.0 | 0.00 | 0.00 | 0.00 | 52 | 1017.2 |
| 20260507185228 | 15 | 206 | 1.6 | 1.6 | 0.00 | 0.00 | 0.00 | 51 | 1017.2 |
| 20260507184350 | 15 | 222 | 0.0 | 0.0 | 0.00 | 0.00 | 0.00 | 51 | 1017.2 |
| 20260507183724 | 15 | 201 | 1.6 | 1.6 | 0.00 | 0.00 | 0.00 | 51 | 1017.1 |
| 20260507183351 | 15 | 204 | 0.0 | 0.0 | 0.00 | 0.00 | 0.00 | 51 | 1017.1 |
| 20260507182352 | 15 | 217 | 1.6 | 3.2 | 0.00 | 0.00 | 0.00 | 50 | 1017.0 |
| 20260507182231 | 15 | 212 | 0.0 | 1.6 | 0.00 | 0.00 | 0.00 | 50 | 1017.0 |
| 20260507181353 | 15 | 207 | 1.6 | 3.2 | 0.00 | 0.00 | 0.00 | 49 | 1017.0 |
| 20260507180728 | 15 | 221 | 1.6 | 1.6 | 0.00 | 0.00 | 0.00 | 49 | 1016.9 |
| 20260507180354 | 15 | 209 | 1.6 | 3.2 | 0.00 | 0.00 | 0.00 | 49 | 1016.9 |
| 20260507175346 | 16 | 210 | 1.6 | 1.6 | 0.00 | 0.00 | 0.00 | 48 | 1016.8 |
| 20260507175224 | 16 | 209 | 1.6 | 3.2 | 0.00 | 0.00 | 0.00 | 48 | 1016.8 |
| 20260507174347 | 16 | 216 | 0.0 | 3.2 | 0.00 | 0.00 | 0.00 | 48 | 1016.7 |
| 20260507173731 | 16 | 223 | 0.0 | 1.6 | 0.00 | 0.00 | 0.00 | 48 | 1016.8 |
| 20260507173347 | 16 | 223 | 0.0 | 0.0 | 0.00 | 0.00 | 0.00 | 48 | 1016.7 |
| 20260507172349 | 16 | 227 | 1.6 | 3.2 | 0.00 | 0.00 | 0.00 | 47 | 1016.7 |
| 20260507172227 | 16 | 229 | 0.0 | 1.6 | 0.00 | 0.00 | 0.00 | 47 | 1016.7 |
| 20260507171349 | 16 | 236 | 1.6 | 3.2 | 0.00 | 0.00 | 0.00 | 46 | 1016.6 |
| 20260507170733 | 16 | 265 | 1.6 | 3.2 | 0.00 | 0.00 | 0.00 | 46 | 1016.7 |
| 20260507170349 | 16 | 253 | 0.0 | 0.0 | 0.00 | 0.00 | 0.00 | 46 | 1016.7 |
| 20260507165351 | 16 | 233 | 0.0 | 1.6 | 0.00 | 0.00 | 0.00 | 45 | 1016.8 |
| 20260507165230 | 16 | 262 | 0.0 | 1.6 | 0.00 | 0.00 | 0.00 | 45 | 1016.8 |
| 20260507164352 | 16 | 258 | 3.2 | 3.2 | 0.00 | 0.00 | 0.00 | 43 | 1016.8 |
| 20260507163726 | 16 | 285 | 1.6 | 4.8 | 0.00 | 0.00 | 0.00 | 42 | 1016.7 |
| 20260507163353 | 16 | 269 | 0.0 | 0.0 | 0.00 | 0.00 | 0.00 | 42 | 1016.6 |
| 20260507162353 | 17 | 279 | 1.6 | 4.8 | 0.00 | 0.00 | 0.00 | 40 | 1016.5 |
| 20260507162232 | 17 | 264 | 0.0 | 3.2 | 0.00 | 0.00 | 0.00 | 41 | 1016.5 |
| 20260507161344 | 17 | 271 | 3.2 | 4.8 | 0.00 | 0.00 | 0.00 | 39 | 1016.5 |
| 20260507160729 | 17 | 265 | 1.6 | 3.2 | 0.00 | 0.00 | 0.00 | 37 | 1016.5 |
| 20260507160345 | 17 | 277 | 1.6 | 4.8 | 0.00 | 0.00 | 0.00 | 37 | 1016.6 |
| 20260507155346 | 18 | 258 | 1.6 | 4.8 | 0.00 | 0.00 | 0.00 | 35 | 1016.6 |
| 20260507155225 | 18 | 290 | 3.2 | 9.7 | 0.00 | 0.00 | 0.00 | 36 | 1016.6 |
| 20260507154348 | 17 | 251 | 3.2 | 8.0 | 0.00 | 0.00 | 0.00 | 35 | 1016.6 |
| 20260507153732 | 17 | 283 | 4.8 | 8.0 | 0.00 | 0.00 | 0.00 | 35 | 1016.6 |
| 20260507153348 | 17 | 284 | 8.0 | 11.3 | 0.00 | 0.00 | 0.00 | 34 | 1016.6 |
| 20260507152350 | 17 | 297 | 3.2 | 9.7 | 0.00 | 0.00 | 0.00 | 36 | 1016.5 |
| 20260507152229 | 17 | 276 | 3.2 | 8.0 | 0.00 | 0.00 | 0.00 | 36 | 1016.5 |
| 20260507151351 | 17 | 295 | 8.0 | 14.5 | 0.00 | 0.00 | 0.00 | 37 | 1016.5 |
| 20260507150725 | 18 | 282 | 8.0 | 14.5 | 0.00 | 0.00 | 0.00 | 37 | 1016.5 |
| 20260507150351 | 18 | 277 | 9.7 | 16.1 | 0.00 | 0.00 | 0.00 | 37 | 1016.5 |
| 20260507145353 | 18 | 261 | 11.3 | 19.3 | 0.00 | 0.00 | 0.00 | 38 | 1016.5 |
| 20260507145232 | 18 | 254 | 8.0 | 8.0 | 0.00 | 0.00 | 0.00 | 38 | 1016.5 |
| 20260507144344 | 18 | 287 | 9.7 | 11.3 | 0.00 | 0.00 | 0.00 | 38 | 1016.6 |
| 20260507143729 | 18 | 286 | 9.7 | 16.1 | 0.00 | 0.00 | 0.00 | 38 | 1016.5 |
| 20260507143345 | 18 | 289 | 4.8 | 11.3 | 0.00 | 0.00 | 0.00 | 37 | 1016.6 |
| 20260507142346 | 18 | 293 | 8.0 | 11.3 | 0.00 | 0.00 | 0.00 | 37 | 1016.5 |
| 20260507142225 | 18 | 292 | 8.0 | 11.3 | 0.00 | 0.00 | 0.00 | 38 | 1016.5 |
| 20260507141347 | 18 | 270 | 8.0 | 12.9 | 0.00 | 0.00 | 0.00 | 38 | 1016.5 |
| 20260507140732 | 18 | 235 | 9.7 | 16.1 | 0.00 | 0.00 | 0.00 | 37 | 1016.6 |
| 20260507140348 | 18 | 263 | 9.7 | 14.5 | 0.00 | 0.00 | 0.00 | 38 | 1016.5 |
| 20260507135350 | 18 | 293 | 9.7 | 16.1 | 0.00 | 0.00 | 0.00 | 35 | 1016.6 |
| 20260507135228 | 18 | 248 | 1.6 | 3.2 | 0.00 | 0.00 | 0.00 | 36 | 1016.5 |
| 20260507134351 | 18 | 263 | 9.7 | 12.9 | 0.00 | 0.00 | 0.00 | 36 | 1016.5 |
| 20260507133725 | 18 | 271 | 9.7 | 14.5 | 0.00 | 0.00 | 0.00 | 37 | 1016.5 |
| 20260507133351 | 18 | 285 | 9.7 | 12.9 | 0.00 | 0.00 | 0.00 | 37 | 1016.5 |
| 20260507132353 | 18 | 268 | 1.6 | 4.8 | 0.00 | 0.00 | 0.00 | 38 | 1016.5 |
| 20260507132232 | 18 | 207 | 1.6 | 4.8 | 0.00 | 0.00 | 0.00 | 38 | 1016.6 |
| 20260507131344 | 18 | 170 | 4.8 | 8.0 | 0.00 | 0.00 | 0.00 | 39 | 1016.7 |
| 20260507130728 | 18 | 34 | 3.2 | 11.3 | 0.00 | 0.00 | 0.00 | 37 | 1016.7 |
| 20260507130344 | 18 | 291 | 3.2 | 4.8 | 0.00 | 0.00 | 0.00 | 37 | 1016.6 |
| 20260507125346 | 18 | 339 | 3.2 | 4.8 | 0.00 | 0.00 | 0.00 | 38 | 1016.7 |
| 20260507125225 | 18 | 264 | 9.7 | 11.3 | 0.00 | 0.00 | 0.00 | 39 | 1016.8 |
| 20260507124347 | 18 | 240 | 1.6 | 4.8 | 0.00 | 0.00 | 0.00 | 40 | 1016.9 |
| 20260507123732 | 17 | 262 | 1.6 | 8.0 | 0.00 | 0.00 | 0.00 | 44 | 1016.9 |
| 20260507123348 | 17 | 230 | 3.2 | 4.8 | 0.00 | 0.00 | 0.00 | 43 | 1016.9 |
| 20260507122349 | 17 | 222 | 4.8 | 8.0 | 0.00 | 0.00 | 0.00 | 42 | 1017.0 |
| 20260507122228 | 18 | 237 | 4.8 | 4.8 | 0.00 | 0.00 | 0.00 | 42 | 1017.1 |
| 20260507121350 | 18 | 227 | 4.8 | 9.7 | 0.00 | 0.00 | 0.00 | 42 | 1017.1 |
| 20260507120725 | 17 | 191 | 3.2 | 4.8 | 0.00 | 0.00 | 0.00 | 43 | 1017.2 |
| 20260507120351 | 17 | 233 | 4.8 | 14.5 | 0.00 | 0.00 | 0.00 | 42 | 1017.3 |
| 20260507115353 | 17 | 315 | 1.6 | 4.8 | 0.00 | 0.00 | 0.00 | 40 | 1017.4 |
| 20260507115231 | 17 | 114 | 0.0 | 1.6 | 0.00 | 0.00 | 0.00 | 40 | 1017.4 |
| 20260507114344 | 17 | 212 | 4.8 | 11.3 | 0.00 | 0.00 | 0.00 | 41 | 1017.4 |
| 20260507113728 | 17 | 252 | 0.0 | 9.7 | 0.00 | 0.00 | 0.00 | 41 | 1017.3 |
| 20260507113353 | 17 | 283 | 0.0 | 3.2 | 0.00 | 0.00 | 0.00 | 41 | 1017.3 |
| 20260507112345 | 18 | 212 | 12.9 | 16.1 | 0.00 | 0.00 | 0.00 | 40 | 1017.4 |
| 20260507112224 | 17 | 234 | 9.7 | 19.3 | 0.00 | 0.00 | 0.00 | 41 | 1017.4 |
| 20260507111346 | 17 | 347 | 3.2 | 4.8 | 0.00 | 0.00 | 0.00 | 40 | 1017.4 |
| 20260507110730 | 17 | 262 | 3.2 | 9.7 | 0.00 | 0.00 | 0.00 | 41 | 1017.4 |
| 20260507110346 | 18 | 241 | 9.7 | 11.3 | 0.00 | 0.00 | 0.00 | 40 | 1017.5 |
| 20260507105348 | 17 | 184 | 1.6 | 3.2 | 0.00 | 0.00 | 0.00 | 41 | 1017.5 |
| 20260507105227 | 17 | 248 | 0.0 | 0.0 | 0.00 | 0.00 | 0.00 | 41 | 1017.5 |
| 20260507104349 | 17 | 233 | 9.7 | 9.7 | 0.00 | 0.00 | 0.00 | 43 | 1017.5 |
| 20260507103723 | 17 | 212 | 3.2 | 11.3 | 0.00 | 0.00 | 0.00 | 44 | 1017.5 |
| 20260507103349 | 17 | 191 | 8.0 | 12.9 | 0.00 | 0.00 | 0.00 | 45 | 1017.5 |